Time;durP1;ratioP1;P1;durP2;ratioP2;P2;SDS_P1;SDS_P2;PMS_P1;PMS_P2;Temp;Humidity;BMP_temperature;BMP_pressure;BME280_temperature;BME280_humidity;BME280_pressure;Samples;Min_cycle;Max_cycle;Signal;HPM_P1;HPM_P2
2023/05/21 00:01:41;;;;;;;14.17;12.77;;;;;;;15.63;100.00;96204.03;7396511;19;20409;-74
2023/05/21 00:04:08;;;;;;;18.90;13.47;;;;;;;15.66;100.00;96203.31;7397970;19;20429;-74
2023/05/21 00:06:35;;;;;;;14.83;13.33;;;;;;;15.58;100.00;96204.31;7396246;19;20425;-74
2023/05/21 00:09:04;;;;;;;14.73;13.43;;;;;;;15.60;100.00;96198.66;7395005;19;20387;-74
2023/05/21 00:11:31;;;;;;;14.77;13.10;;;;;;;15.53;100.00;96203.88;7394800;19;20424;-75
2023/05/21 00:13:58;;;;;;;13.60;12.33;;;;;;;15.46;100.00;96190.44;7397738;19;20389;-75
2023/05/21 00:16:25;;;;;;;13.20;12.10;;;;;;;15.37;100.00;96180.84;7396735;19;20372;-75
2023/05/21 00:18:53;;;;;;;13.73;12.57;;;;;;;15.45;100.00;96191.56;7395897;19;20400;-75
2023/05/21 00:21:24;;;;;;;14.50;13.00;;;;;;;15.35;100.00;96164.41;7406095;19;20459;-74
2023/05/21 00:23:55;;;;;;;14.70;12.73;;;;;;;15.56;100.00;96198.59;7431143;19;20381;-74
2023/05/21 00:26:25;;;;;;;17.03;14.40;;;;;;;15.52;100.00;96187.13;7431933;19;20433;-74
2023/05/21 00:28:55;;;;;;;15.33;13.80;;;;;;;15.36;100.00;96181.19;7416173;19;20372;-74
2023/05/21 00:31:22;;;;;;;13.50;12.30;;;;;;;15.37;100.00;96175.50;7396119;19;20432;-74
2023/05/21 00:33:49;;;;;;;14.90;13.27;;;;;;;15.36;100.00;96186.53;7394655;19;21052;-74
2023/05/21 00:36:16;;;;;;;19.20;15.27;;;;;;;15.27;100.00;96168.13;7393244;19;20469;-74
2023/05/21 00:38:44;;;;;;;16.23;14.53;;;;;;;15.32;100.00;96175.03;7393439;19;20415;-74
2023/05/21 00:41:12;;;;;;;15.93;14.37;;;;;;;15.32;100.00;96178.47;7395401;19;20969;-74
2023/05/21 00:43:39;;;;;;;15.80;14.30;;;;;;;15.17;100.00;96154.66;7394864;19;20380;-74
2023/05/21 00:46:10;;;;;;;15.97;14.37;;;;;;;15.26;100.00;96176.50;7397716;19;20345;-74
2023/05/21 00:48:38;;;;;;;15.07;13.67;;;;;;;15.23;100.00;96170.00;7396526;19;20723;-74
2023/05/21 00:51:05;;;;;;;15.27;13.27;;;;;;;15.19;100.00;96163.06;7396791;19;20393;-74
2023/05/21 00:53:35;;;;;;;15.23;13.73;;;;;;;15.17;100.00;96165.31;7394731;19;20393;-74
2023/05/21 00:56:03;;;;;;;16.13;14.47;;;;;;;15.14;100.00;96166.03;7396470;19;20405;-75
2023/05/21 00:58:32;;;;;;;17.30;15.03;;;;;;;15.02;100.00;96154.47;7393777;19;20464;-75
2023/05/21 01:01:02;;;;;;;15.63;13.37;;;;;;;15.24;100.00;96176.09;7394265;19;20417;-75
2023/05/21 01:03:29;;;;;;;14.60;13.23;;;;;;;15.20;100.00;96160.03;7395115;19;20381;-74
2023/05/21 01:05:58;;;;;;;13.57;12.27;;;;;;;15.19;100.00;96157.72;7397820;19;20360;-74
2023/05/21 01:08:27;;;;;;;17.47;15.87;;;;;;;15.15;100.00;96154.25;7394642;19;20412;-74
2023/05/21 01:10:56;;;;;;;19.00;14.63;;;;;;;15.22;100.00;96151.69;7392240;19;20433;-74
2023/05/21 01:13:23;;;;;;;15.13;13.73;;;;;;;15.24;100.00;96170.75;7395092;19;20409;-74
2023/05/21 01:15:52;;;;;;;16.13;14.60;;;;;;;15.11;100.00;96140.91;7394800;19;20924;-74
2023/05/21 01:18:20;;;;;;;14.83;13.43;;;;;;;14.79;100.00;96108.47;7394153;19;20372;-74
2023/05/21 01:20:48;;;;;;;17.27;15.37;;;;;;;14.95;100.00;96146.34;7394231;19;20408;-74
2023/05/21 01:23:19;;;;;;;15.40;13.97;;;;;;;15.06;100.00;96159.84;7395296;19;20391;-74
2023/05/21 01:25:46;;;;;;;17.13;15.33;;;;;;;14.93;100.00;96131.88;7393666;19;20377;-74
2023/05/21 01:28:13;;;;;;;14.57;13.00;;;;;;;14.81;100.00;96145.38;7395423;19;20369;-74
2023/05/21 01:30:42;;;;;;;16.43;14.93;;;;;;;14.85;100.00;96136.34;7392479;19;20500;-74
2023/05/21 01:33:35;;;;;;;15.80;14.23;;;;;;;14.97;100.00;96162.00;7396170;19;20370;-74
2023/05/21 01:36:14;;;;;;;18.23;14.13;;;;;;;14.98;100.00;96161.63;7394167;19;20430;-74
2023/05/21 01:38:47;;;;;;;17.03;14.77;;;;;;;14.89;100.00;96150.47;7392147;19;20511;-74
2023/05/21 01:41:17;;;;;;;14.80;13.40;;;;;;;14.87;100.00;96158.03;7393438;19;20425;-74
2023/05/21 01:43:46;;;;;;;16.03;14.33;;;;;;;14.65;100.00;96130.31;7391560;19;20396;-75
2023/05/21 01:46:18;;;;;;;15.70;14.30;;;;;;;14.87;100.00;96146.63;7394298;19;20921;-75
2023/05/21 01:48:47;;;;;;;15.03;13.63;;;;;;;14.72;100.00;96125.13;7392902;19;20757;-74
2023/05/21 01:51:14;;;;;;;17.50;14.23;;;;;;;14.63;100.00;96127.25;7393640;19;20914;-74
2023/05/21 01:53:41;;;;;;;16.20;14.47;;;;;;;14.59;100.00;96123.03;7393750;19;20387;-74
2023/05/21 01:56:10;;;;;;;15.47;13.77;;;;;;;14.70;100.00;96145.25;7394955;19;20389;-74
2023/05/21 01:58:37;;;;;;;16.60;14.83;;;;;;;14.49;100.00;96135.78;7392222;19;20892;-74
2023/05/21 02:01:04;;;;;;;17.53;15.70;;;;;;;14.47;100.00;96119.41;7393524;19;20428;-74
2023/05/21 02:03:31;;;;;;;17.60;14.40;;;;;;;14.63;100.00;96147.78;7391016;19;20365;-75
2023/05/21 02:05:58;;;;;;;16.70;14.90;;;;;;;14.49;100.00;96141.09;7391804;19;20373;-74
2023/05/21 02:08:26;;;;;;;16.83;15.07;;;;;;;14.52;100.00;96128.22;7393768;19;20385;-74
2023/05/21 02:10:53;;;;;;;17.57;15.97;;;;;;;14.51;100.00;96139.97;7390890;19;20416;-75
2023/05/21 02:13:21;;;;;;;15.20;13.80;;;;;;;14.51;100.00;96134.66;7397425;19;20348;-74
2023/05/21 02:15:53;;;;;;;16.13;14.63;;;;;;;14.41;100.00;96122.69;7399153;19;20431;-74
2023/05/21 02:18:21;;;;;;;15.70;14.30;;;;;;;14.46;100.00;96117.13;7399570;19;20372;-73
2023/05/21 02:20:49;;;;;;;16.13;14.53;;;;;;;14.34;100.00;96114.59;7398150;19;20465;-73
2023/05/21 02:23:16;;;;;;;15.80;14.20;;;;;;;14.23;100.00;96092.38;7401978;19;20373;-73
2023/05/21 02:25:43;;;;;;;16.73;15.03;;;;;;;14.35;100.00;96113.47;7399227;19;20405;-73
2023/05/21 02:28:11;;;;;;;16.23;14.50;;;;;;;14.64;100.00;96142.09;7400271;19;20940;-73
2023/05/21 02:30:38;;;;;;;16.00;14.40;;;;;;;14.67;100.00;96138.72;7398545;19;20432;-73
2023/05/21 02:33:07;;;;;;;19.13;17.13;;;;;;;14.50;100.00;96120.59;7400643;19;20401;-73
2023/05/21 02:35:35;;;;;;;15.97;14.37;;;;;;;14.68;100.00;96145.56;7399102;19;20815;-73
2023/05/21 02:38:02;;;;;;;16.13;14.53;;;;;;;14.64;100.00;96139.44;7400701;19;20398;-73
2023/05/21 02:40:29;;;;;;;16.23;14.53;;;;;;;14.67;100.00;96138.72;7398115;19;20964;-73
2023/05/21 02:42:56;;;;;;;17.03;15.20;;;;;;;14.40;100.00;96107.84;7400982;19;20429;-73
2023/05/21 02:45:23;;;;;;;15.87;14.37;;;;;;;14.57;100.00;96143.91;7398989;19;20468;-73
2023/05/21 02:47:51;;;;;;;15.60;14.20;;;;;;;14.37;100.00;96117.31;7400719;19;20364;-73
2023/05/21 02:50:18;;;;;;;15.63;14.03;;;;;;;14.43;100.00;96131.09;7398826;19;20389;-74
2023/05/21 02:52:54;;;;;;;16.47;14.87;;;;;;;14.47;100.00;96102.69;7400801;19;20372;-73
2023/05/21 02:55:21;;;;;;;17.43;13.30;;;;;;;14.39;100.00;96125.69;7399255;19;20407;-74
2023/05/21 02:57:49;;;;;;;15.33;13.83;;;;;;;14.29;100.00;96123.66;7397542;19;20368;-73
2023/05/21 03:00:16;;;;;;;16.13;14.43;;;;;;;14.25;100.00;96122.03;7398901;19;20377;-73
2023/05/21 03:02:43;;;;;;;16.63;15.03;;;;;;;14.29;100.00;96121.00;7397153;19;20421;-73
2023/05/21 03:05:11;;;;;;;16.83;15.23;;;;;;;14.22;100.00;96125.41;7398779;19;20373;-73
2023/05/21 03:07:38;;;;;;;16.50;15.00;;;;;;;14.25;100.00;96116.72;7397672;19;20402;-73
2023/05/21 03:10:05;;;;;;;16.20;14.67;;;;;;;14.15;100.00;96118.84;7398317;19;20380;-73
2023/05/21 03:12:32;;;;;;;16.40;14.73;;;;;;;14.23;100.00;96119.75;7400298;19;20408;-73
2023/05/21 03:14:59;;;;;;;16.00;14.40;;;;;;;14.18;100.00;96120.81;7398565;19;20403;-73
2023/05/21 03:17:26;;;;;;;16.97;15.47;;;;;;;14.10;100.00;96108.50;7398132;19;20377;-73
2023/05/21 03:19:53;;;;;;;17.20;15.53;;;;;;;14.18;100.00;96115.50;7398869;19;20392;-73
2023/05/21 03:22:20;;;;;;;16.07;14.37;;;;;;;14.02;100.00;96098.09;7395839;19;20424;-73
2023/05/21 03:24:47;;;;;;;15.43;13.83;;;;;;;14.12;100.00;96121.44;7400732;19;20369;-73
2023/05/21 03:27:16;;;;;;;16.23;14.63;;;;;;;14.15;100.00;96121.50;7397841;19;20435;-73
2023/05/21 03:29:44;;;;;;;17.53;15.77;;;;;;;14.15;100.00;96116.19;7401139;19;20409;-73
2023/05/21 03:32:12;;;;;;;18.37;15.60;;;;;;;14.03;100.00;96110.28;7396797;19;20898;-73
2023/05/21 03:34:40;;;;;;;17.97;16.17;;;;;;;13.92;100.00;96096.03;7400948;19;20372;-73
2023/05/21 03:37:07;;;;;;;17.17;15.47;;;;;;;13.93;100.00;96108.22;7399083;19;20905;-73
2023/05/21 03:39:35;;;;;;;17.53;15.83;;;;;;;13.88;100.00;96080.00;7396903;19;20373;-73
2023/05/21 03:42:02;;;;;;;16.20;14.50;;;;;;;14.04;100.00;96101.97;7395405;19;20945;-73
2023/05/21 03:44:43;;;;;;;15.03;13.67;;;;;;;14.05;100.00;96098.19;7399211;19;20411;-73
2023/05/21 03:47:35;;;;;;;16.90;15.20;;;;;;;14.16;100.00;96114.31;7398290;19;20920;-73
2023/05/21 03:50:05;;;;;;;17.43;15.73;;;;;;;13.97;100.00;96103.72;7396677;19;20372;-73
2023/05/21 03:52:32;;;;;;;17.03;15.40;;;;;;;14.18;100.00;96114.72;7398085;19;20399;-73
2023/05/21 03:54:59;;;;;;;16.00;14.60;;;;;;;14.06;100.00;96117.56;7396343;19;20812;-73
2023/05/21 03:57:27;;;;;;;15.13;13.73;;;;;;;14.06;100.00;96125.53;7398123;19;20391;-73
2023/05/21 03:59:54;;;;;;;16.23;14.53;;;;;;;13.95;100.00;96104.06;7394415;19;20927;-73
2023/05/21 04:02:21;;;;;;;18.27;16.60;;;;;;;14.20;100.00;96131.09;7395949;19;20424;-73
2023/05/21 04:04:50;;;;;;;17.70;15.80;;;;;;;14.19;100.00;96132.97;7396634;19;20372;-73
2023/05/21 04:07:21;;;;;;;17.47;15.67;;;;;;;14.11;100.00;96126.00;7398157;19;20380;-73
2023/05/21 04:09:48;;;;;;;15.50;14.17;;;;;;;14.13;100.00;96136.28;7396246;19;20412;-73
2023/05/21 04:12:16;;;;;;;17.00;15.40;;;;;;;14.15;100.00;96129.47;7395768;19;20507;-73
2023/05/21 04:14:43;;;;;;;15.73;14.33;;;;;;;14.01;100.00;96102.63;7397333;19;20368;-73
2023/05/21 04:17:11;;;;;;;16.63;15.13;;;;;;;14.23;100.00;96129.63;7397623;19;20373;-73
2023/05/21 04:19:38;;;;;;;16.67;14.97;;;;;;;14.20;100.00;96123.88;7395824;19;20352;-73
2023/05/21 04:22:05;;;;;;;17.50;15.97;;;;;;;14.22;100.00;96126.19;7397760;19;20429;-73
2023/05/21 04:24:32;;;;;;;16.83;15.13;;;;;;;14.09;100.00;96122.94;7396189;19;20393;-73
2023/05/21 04:27:08;;;;;;;17.10;15.50;;;;;;;14.25;100.00;96127.38;7394595;19;20374;-73
2023/05/21 04:29:36;;;;;;;17.30;15.53;;;;;;;14.09;100.00;96116.84;7395952;19;20909;-73
2023/05/21 04:32:05;;;;;;;16.00;14.40;;;;;;;14.31;100.00;96139.25;7393417;19;20440;-73
2023/05/21 04:34:32;;;;;;;14.90;13.57;;;;;;;14.31;100.00;96124.06;7396482;19;20397;-73
2023/05/21 04:37:01;;;;;;;16.70;15.00;;;;;;;14.33;100.00;96123.72;7393775;19;20433;-73
2023/05/21 04:39:30;;;;;;;18.47;15.20;;;;;;;14.42;100.00;96121.56;7395589;19;20397;-73
2023/05/21 04:41:57;;;;;;;17.60;15.80;;;;;;;14.49;100.00;96140.34;7393562;19;20960;-73
2023/05/21 04:44:24;;;;;;;18.40;16.50;;;;;;;14.49;100.00;96132.34;7396917;19;20380;-73
2023/05/21 04:46:53;;;;;;;17.17;15.57;;;;;;;14.54;100.00;96140.03;7394497;19;20908;-73
2023/05/21 04:49:20;;;;;;;16.57;14.97;;;;;;;14.54;100.00;96121.41;7396457;19;20415;-73
2023/05/21 04:51:48;;;;;;;17.13;15.53;;;;;;;14.66;100.00;96118.56;7393786;19;20461;-73
2023/05/21 04:54:15;;;;;;;15.53;14.03;;;;;;;14.86;100.00;96145.88;7396534;19;20376;-73
2023/05/21 04:56:43;;;;;;;16.27;14.67;;;;;;;14.83;100.00;96127.94;7394487;19;20865;-73
2023/05/21 04:59:10;;;;;;;18.97;15.70;;;;;;;15.12;100.00;96145.09;7395688;19;20380;-73
2023/05/21 05:01:37;;;;;;;15.20;13.80;;;;;;;15.05;100.00;96132.44;7393035;19;20837;-73
2023/05/21 05:04:04;;;;;;;16.97;14.43;;;;;;;15.06;100.00;96143.84;7396696;19;20807;-73
2023/05/21 05:06:32;;;;;;;14.63;13.33;;;;;;;15.13;100.00;96125.31;7394524;19;20421;-73
2023/05/21 05:08:58;;;;;;;15.97;14.33;;;;;;;15.11;100.00;96130.25;7395817;19;20372;-73
2023/05/21 05:11:25;;;;;;;15.97;14.57;;;;;;;15.18;100.00;96151.63;7394821;19;20393;-73
2023/05/21 05:13:52;;;;;;;18.20;14.87;;;;;;;15.06;100.00;96127.88;7396166;19;20408;-73
2023/05/21 05:16:24;;;;;;;15.50;14.20;;;;;;;15.24;100.00;96144.88;7395151;19;20379;-73
2023/05/21 05:18:54;;;;;;;16.90;15.27;;;;;;;15.22;100.00;96135.69;7392665;19;20903;-73
2023/05/21 05:21:22;;;;;;;15.50;14.00;;;;;;;15.38;100.00;96145.06;7393028;19;20424;-73
2023/05/21 05:23:49;;;;;;;15.23;13.80;;;;;;;15.35;100.00;96158.31;7393111;19;20388;-73
2023/05/21 05:26:21;;;;;;;15.50;14.10;;;;;;;15.44;100.00;96152.72;7395219;19;20461;-73
2023/05/21 05:28:48;;;;;;;16.07;14.47;;;;;;;15.28;100.00;96137.69;7393109;19;20383;-73
2023/05/21 05:31:16;;;;;;;16.10;14.47;;;;;;;15.25;100.00;96151.75;7393737;19;20453;-73
2023/05/21 05:33:44;;;;;;;17.30;15.50;;;;;;;15.24;100.00;96160.88;7393286;19;20405;-73
2023/05/21 05:36:11;;;;;;;15.23;13.63;;;;;;;15.33;100.00;96149.94;7394705;19;20375;-73
2023/05/21 05:38:39;;;;;;;17.50;15.70;;;;;;;15.21;100.00;96144.81;7393218;19;20500;-73
2023/05/21 05:41:06;;;;;;;17.20;15.40;;;;;;;15.08;100.00;96122.97;7393362;19;20420;-73
2023/05/21 05:43:33;;;;;;;17.43;15.63;;;;;;;15.24;100.00;96142.22;7395080;19;20412;-73
2023/05/21 05:46:00;;;;;;;14.93;13.53;;;;;;;14.96;100.00;96102.66;7394923;19;20372;-73
2023/05/21 05:48:27;;;;;;;16.97;15.30;;;;;;;15.33;100.00;96141.94;7414638;19;20355;-73
2023/05/21 05:50:55;;;;;;;17.67;15.80;;;;;;;15.45;100.00;96148.94;7436063;19;20447;-73
2023/05/21 05:53:24;;;;;;;17.47;15.67;;;;;;;15.36;100.00;96126.00;7436113;19;20381;-73
2023/05/21 05:55:52;;;;;;;16.30;14.80;;;;;;;15.60;100.00;96143.44;7422406;19;20737;-73
2023/05/21 05:58:19;;;;;;;15.10;13.37;;;;;;;15.66;100.00;96136.69;7401213;19;20380;-73
2023/05/21 06:00:56;;;;;;;16.43;14.93;;;;;;;15.76;100.00;96159.28;7399635;19;20444;-73
2023/05/21 06:03:27;;;;;;;16.23;14.60;;;;;;;15.89;100.00;96159.75;7401278;19;20726;-73
2023/05/21 06:05:55;;;;;;;18.23;14.33;;;;;;;15.77;100.00;96142.13;7402305;19;20372;-73
2023/05/21 06:08:23;;;;;;;13.17;11.97;;;;;;;15.96;100.00;96155.28;7400888;19;20400;-73
2023/05/21 06:10:51;;;;;;;15.70;14.40;;;;;;;15.94;100.00;96146.91;7398093;19;20788;-73
2023/05/21 06:13:18;;;;;;;15.10;13.70;;;;;;;15.90;100.00;96134.66;7400971;19;20407;-74
2023/05/21 06:15:45;;;;;;;15.10;13.60;;;;;;;15.99;100.00;96137.78;7399566;19;20447;-73
2023/05/21 06:18:13;;;;;;;15.60;14.03;;;;;;;16.12;100.00;96154.31;7400929;19;20364;-73
2023/05/21 06:20:40;;;;;;;17.57;15.70;;;;;;;16.14;100.00;96146.69;7396636;19;20433;-73
2023/05/21 06:23:08;;;;;;;16.03;14.50;;;;;;;16.03;100.00;96122.59;7400401;19;20396;-73
2023/05/21 06:25:36;;;;;;;15.80;14.23;;;;;;;16.19;100.00;96141.81;7398643;19;20364;-73
2023/05/21 06:28:04;;;;;;;15.53;13.60;;;;;;;16.37;100.00;96155.31;7400378;19;20944;-73
2023/05/21 06:30:32;;;;;;;15.60;14.00;;;;;;;16.31;100.00;96135.44;7398449;19;20427;-73
2023/05/21 06:32:59;;;;;;;16.93;15.23;;;;;;;16.59;100.00;96148.28;7400611;19;20920;-73
2023/05/21 06:35:26;;;;;;;15.87;14.33;;;;;;;16.89;100.00;96158.06;7399216;19;20372;-73
2023/05/21 06:37:53;;;;;;;14.97;13.50;;;;;;;16.96;100.00;96169.56;7400051;19;20778;-73
2023/05/21 06:40:20;;;;;;;15.43;14.00;;;;;;;17.01;100.00;96163.88;7397490;19;20711;-73
2023/05/21 06:42:49;;;;;;;14.10;12.70;;;;;;;16.72;100.00;96128.19;7397408;19;20397;-73
2023/05/21 06:45:35;;;;;;;15.50;14.00;;;;;;;17.24;100.00;96171.66;7398597;19;20868;-73
2023/05/21 06:48:17;;;;;;;14.27;12.53;;;;;;;17.22;100.00;96143.75;7397828;19;20376;-73
2023/05/21 06:50:45;;;;;;;15.47;13.97;;;;;;;17.67;100.00;96151.25;7398475;19;20420;-73
2023/05/21 06:53:15;;;;;;;15.47;13.97;;;;;;;17.88;100.00;96176.53;7398033;19;20405;-73
2023/05/21 06:55:44;;;;;;;14.40;13.00;;;;;;;17.63;100.00;96182.56;7399822;19;20376;-73
2023/05/21 06:58:21;;;;;;;15.07;13.43;;;;;;;17.62;100.00;96180.22;7396848;19;20381;-73
2023/05/21 07:00:48;;;;;;;15.60;14.00;;;;;;;17.66;100.00;96184.47;7397728;19;20946;-73
2023/05/21 07:03:16;;;;;;;17.23;14.87;;;;;;;17.31;100.00;96170.91;7398314;19;20364;-73
2023/05/21 07:05:43;;;;;;;15.07;13.67;;;;;;;17.69;100.00;96178.41;7399849;19;20376;-73
2023/05/21 07:08:10;;;;;;;17.67;14.90;;;;;;;17.54;100.00;96166.06;7400611;19;20341;-73
2023/05/21 07:10:38;;;;;;;15.17;13.77;;;;;;;17.80;100.00;96175.00;7399504;19;20479;-73
2023/05/21 07:13:05;;;;;;;19.60;14.83;;;;;;;17.80;100.00;96185.69;7398334;19;20757;-73
2023/05/21 07:15:32;;;;;;;15.97;14.57;;;;;;;18.02;100.00;96181.94;7399893;19;20376;-73
2023/05/21 07:18:01;;;;;;;15.53;13.97;;;;;;;17.71;100.00;96153.94;7398179;19;20760;-73
2023/05/21 07:20:28;;;;;;;15.80;14.17;;;;;;;18.11;100.00;96179.69;7398378;19;20404;-73
2023/05/21 07:23:00;;;;;;;15.43;14.00;;;;;;;17.93;100.00;96178.88;7398441;19;20381;-73
2023/05/21 07:25:27;;;;;;;14.43;12.93;;;;;;;18.21;100.00;96184.31;7398699;19;20377;-73
2023/05/21 07:27:54;;;;;;;17.77;13.50;;;;;;;17.83;100.00;96160.88;7398692;19;20413;-73
2023/05/21 07:30:21;;;;;;;14.80;13.50;;;;;;;18.17;100.00;96162.13;7397454;19;20392;-73
2023/05/21 07:32:48;;;;;;;15.67;14.00;;;;;;;18.30;100.00;96165.97;7398820;19;20900;-72
2023/05/21 07:35:15;;;;;;;14.43;13.13;;;;;;;18.41;100.00;96167.88;7397272;19;20371;-72
2023/05/21 07:37:42;;;;;;;15.07;13.60;;;;;;;18.80;100.00;96154.53;7397978;19;20424;-73
2023/05/21 07:40:09;;;;;;;16.00;13.60;;;;;;;19.01;100.00;96175.22;7397016;19;20394;-73
2023/05/21 07:42:37;;;;;;;14.93;13.60;;;;;;;19.20;100.00;96182.84;7398631;19;20369;-73
2023/05/21 07:45:05;;;;;;;15.10;13.60;;;;;;;19.55;100.00;96178.59;7397643;19;20373;-73
2023/05/21 07:47:38;;;;;;;15.83;14.43;;;;;;;19.85;100.00;96176.16;7399039;19;20919;-73
2023/05/21 07:50:05;;;;;;;16.23;14.60;;;;;;;19.71;100.00;96170.88;7397585;19;20413;-73
2023/05/21 07:52:32;;;;;;;15.00;13.50;;;;;;;20.07;100.00;96184.91;7398462;19;20390;-73
2023/05/21 07:55:01;;;;;;;14.67;13.17;;;;;;;20.14;100.00;96163.38;7397231;19;20407;-73
2023/05/21 07:57:31;;;;;;;15.30;13.90;;;;;;;20.44;100.00;96187.03;7398950;19;20366;-73
2023/05/21 08:00:01;;;;;;;13.90;12.60;;;;;;;20.63;100.00;96191.88;7396668;19;20925;-73
2023/05/21 08:02:30;;;;;;;15.10;13.57;;;;;;;20.69;100.00;96168.03;7400400;19;20361;-73
2023/05/21 08:04:57;;;;;;;13.97;12.70;;;;;;;21.01;100.00;96178.53;7397398;19;20390;-73
2023/05/21 08:07:25;;;;;;;13.77;12.57;;;;;;;20.65;100.00;96168.06;7398998;19;20406;-73
2023/05/21 08:09:53;;;;;;;15.10;13.60;;;;;;;20.92;100.00;96159.41;7395368;19;20791;-73
2023/05/21 08:12:21;;;;;;;14.90;13.50;;;;;;;21.05;100.00;96167.72;7396805;19;20923;-73
2023/05/21 08:14:48;;;;;;;14.23;12.93;;;;;;;21.38;100.00;96179.75;7397535;19;20390;-73
2023/05/21 08:17:16;;;;;;;13.57;12.20;;;;;;;21.16;100.00;96165.72;7395753;19;20733;-73
2023/05/21 08:19:43;;;;;;;14.40;13.00;;;;;;;21.20;100.00;96177.19;7396603;19;20401;-73
2023/05/21 08:22:10;;;;;;;14.77;13.37;;;;;;;21.47;100.00;96169.28;7395250;19;20409;-73
2023/05/21 08:24:40;;;;;;;13.17;11.77;;;;;;;21.41;100.00;96177.03;7397351;19;20393;-73
2023/05/21 08:27:07;;;;;;;12.50;11.30;;;;;;;21.25;100.00;96171.44;7396185;19;20358;-73
2023/05/21 08:29:34;;;;;;;13.73;12.43;;;;;;;21.44;100.00;96175.47;7397114;19;20396;-74
2023/05/21 08:32:11;;;;;;;12.40;11.30;;;;;;;21.52;100.00;96179.59;7429571;19;20486;-74
2023/05/21 08:34:39;;;;;;;13.90;12.60;;;;;;;21.82;100.00;96176.94;7432482;19;20395;-73
2023/05/21 08:37:23;;;;;;;13.00;11.90;;;;;;;22.08;100.00;96188.19;7431263;19;20364;-73
2023/05/21 08:40:00;;;;;;;13.37;12.10;;;;;;;21.74;100.00;96175.50;7429628;19;20737;-73
2023/05/21 08:42:41;;;;;;;11.97;10.80;;;;;;;22.08;99.93;96190.91;7431325;19;20366;-73
2023/05/21 08:45:13;;;;;;;13.03;11.70;;;;;;;22.16;99.24;96184.22;7430247;19;20410;-73
2023/05/21 08:47:42;;;;;;;12.17;10.97;;;;;;;22.08;98.43;96172.03;7431641;19;20443;-73
2023/05/21 08:50:15;;;;;;;12.37;11.27;;;;;;;22.30;98.44;96178.69;7429119;19;20378;-73
2023/05/21 08:52:42;;;;;;;12.70;11.67;;;;;;;22.16;96.44;96168.06;7428936;19;20367;-74
2023/05/21 08:55:09;;;;;;;12.60;11.40;;;;;;;22.46;97.71;96180.00;7430538;19;20393;-73
2023/05/21 08:57:42;;;;;;;13.47;12.07;;;;;;;22.62;98.84;96183.59;7431939;19;20394;-73
2023/05/21 09:00:12;;;;;;;11.23;10.23;;;;;;;22.71;95.69;96175.75;7442074;19;20411;-73
2023/05/21 09:02:42;;;;;;;12.23;11.00;;;;;;;22.31;95.85;96155.19;7467229;19;20431;-73
2023/05/21 09:05:11;;;;;;;12.70;11.60;;;;;;;22.81;94.95;96147.09;7466145;19;20393;-73
2023/05/21 09:07:44;;;;;;;11.33;10.33;;;;;;;22.82;94.34;96158.63;7449024;19;20411;-73
2023/05/21 09:10:36;;;;;;;12.43;11.33;;;;;;;22.67;93.99;96150.78;7432583;19;20506;-74
2023/05/21 09:13:03;;;;;;;13.97;11.43;;;;;;;22.79;92.92;96154.81;7430437;19;20373;-73
2023/05/21 09:15:31;;;;;;;12.40;11.20;;;;;;;23.22;93.03;96181.88;7432819;19;20346;-73
2023/05/21 09:17:58;;;;;;;12.60;11.40;;;;;;;22.85;91.35;96158.63;7429215;19;20782;-73
2023/05/21 09:20:48;;;;;;;11.80;10.70;;;;;;;22.58;92.31;96153.25;7428474;19;20481;-73
2023/05/21 09:23:19;;;;;;;11.73;10.70;;;;;;;22.43;94.82;96171.53;7429929;19;20466;-73
2023/05/21 09:25:48;;;;;;;11.87;10.80;;;;;;;22.93;93.22;96178.13;7428626;19;20358;-74
2023/05/21 09:28:23;;;;;;;13.03;11.10;;;;;;;23.12;90.86;96179.38;7430522;19;20365;-73
2023/05/21 09:30:52;;;;;;;12.20;11.20;;;;;;;23.12;92.54;96155.09;7427425;19;20450;-73
2023/05/21 09:33:24;;;;;;;12.83;11.63;;;;;;;23.35;89.66;96125.34;7430742;19;20371;-73
2023/05/21 09:35:52;;;;;;;12.73;11.63;;;;;;;23.52;89.94;96156.66;7429204;19;20376;-73
2023/05/21 09:38:21;;;;;;;13.60;12.50;;;;;;;23.58;88.45;96173.16;7430213;19;20367;-73
2023/05/21 09:40:48;;;;;;;14.33;11.70;;;;;;;23.64;90.44;96154.53;7428295;19;20439;-73
2023/05/21 09:43:16;;;;;;;13.23;12.13;;;;;;;24.08;89.88;96158.66;7405215;19;20379;-73
2023/05/21 09:45:54;;;;;;;11.60;10.70;;;;;;;23.46;86.45;96150.22;7400453;19;20373;-73
2023/05/21 09:48:35;;;;;;;12.47;11.17;;;;;;;23.16;86.34;96164.63;7398823;19;20375;-73
2023/05/21 09:51:17;;;;;;;12.10;10.90;;;;;;;23.64;85.74;96173.41;7399509;19;20865;-74
2023/05/21 09:53:53;;;;;;;10.90;9.90;;;;;;;23.48;82.81;96152.50;7401488;19;20354;-74
2023/05/21 09:56:23;;;;;;;11.87;10.47;;;;;;;23.71;82.53;96171.34;7401353;19;20379;-74
2023/05/21 09:58:55;;;;;;;11.10;10.10;;;;;;;23.95;82.32;96158.53;7399796;19;20928;-74
2023/05/21 10:01:23;;;;;;;11.77;10.73;;;;;;;23.82;83.10;96155.72;7397174;19;20500;-73
2023/05/21 10:03:55;;;;;;;11.17;10.20;;;;;;;24.39;82.25;96169.97;7400184;19;20389;-73
2023/05/21 10:06:26;;;;;;;11.50;10.60;;;;;;;24.52;80.68;96141.09;7398766;19;20911;-73
2023/05/21 10:08:55;;;;;;;11.53;10.53;;;;;;;24.89;81.49;96164.16;7400381;19;20400;-73
2023/05/21 10:11:25;;;;;;;11.07;10.10;;;;;;;25.13;80.60;96167.47;7397648;19;20489;-74
2023/05/21 10:14:06;;;;;;;11.57;10.47;;;;;;;25.14;79.79;96152.75;7400436;19;20381;-74
2023/05/21 10:16:34;;;;;;;11.70;10.60;;;;;;;25.23;82.11;96162.94;7399338;19;20355;-74
2023/05/21 10:19:04;;;;;;;10.87;9.83;;;;;;;24.56;79.46;96170.75;7399820;19;20362;-74
2023/05/21 10:21:32;;;;;;;11.37;10.47;;;;;;;24.48;78.96;96161.28;7399582;19;20414;-74
2023/05/21 10:24:01;;;;;;;11.13;10.13;;;;;;;23.59;79.20;96118.75;7398018;19;20402;-74
2023/05/21 10:26:29;;;;;;;10.83;9.83;;;;;;;23.91;79.79;96132.78;7399279;19;20900;-74
2023/05/21 10:28:58;;;;;;;11.23;10.13;;;;;;;23.43;79.34;96131.38;7399414;19;20340;-73
2023/05/21 10:31:28;;;;;;;11.80;10.80;;;;;;;23.59;80.08;96153.84;7397772;19;20613;-73
2023/05/21 10:33:56;;;;;;;11.57;10.37;;;;;;;23.23;81.06;96126.72;7397978;19;20400;-74
2023/05/21 10:36:26;;;;;;;11.00;10.00;;;;;;;23.72;80.02;96137.00;7400778;19;20729;-73
2023/05/21 10:38:55;;;;;;;15.50;14.10;;;;;;;23.71;81.77;96130.84;7397854;19;20972;-73
2023/05/21 10:41:24;;;;;;;11.80;10.47;;;;;;;23.77;80.09;96141.91;7398781;19;20433;-73
2023/05/21 10:44:20;;;;;;;12.47;11.17;;;;;;;24.03;81.45;96140.97;7398759;19;20467;-73
2023/05/21 10:47:12;;;;;;;10.30;9.40;;;;;;;24.27;80.34;96151.69;7397327;19;20350;-74
2023/05/21 10:49:56;;;;;;;10.73;9.63;;;;;;;24.23;80.06;96146.34;7401601;19;20369;-74
2023/05/21 10:53:20;;;;;;;10.17;9.30;;;;;;;24.01;78.48;96139.88;7396784;19;20522;-73
2023/05/21 10:55:57;;;;;;;14.23;13.00;;;;;;;23.92;77.80;96137.00;7395595;19;20365;-73
2023/05/21 10:58:47;;;;;;;10.73;9.80;;;;;;;24.22;80.03;96134.03;7395474;19;20416;-73
2023/05/21 11:01:18;;;;;;;14.73;10.57;;;;;;;23.70;77.42;96117.78;7393712;19;20823;-74
2023/05/21 11:03:47;;;;;;;10.37;9.50;;;;;;;24.43;77.16;96135.50;7396113;19;20407;-73
2023/05/21 11:06:25;;;;;;;13.00;10.10;;;;;;;23.95;76.37;96128.06;7395131;19;20753;-74
2023/05/21 11:08:52;;;;;;;9.57;8.60;;;;;;;24.45;76.74;96109.59;7396560;19;20362;-74
2023/05/21 11:11:43;;;;;;;9.97;9.00;;;;;;;24.64;74.95;96120.72;7393986;19;20429;-75
2023/05/21 11:14:37;;;;;;;9.37;8.43;;;;;;;24.76;74.31;96125.47;7394322;19;20360;-74
2023/05/21 11:17:08;;;;;;;10.27;8.60;;;;;;;25.19;73.66;96132.53;7396569;19;20457;-74
2023/05/21 11:19:53;;;;;;;9.93;8.93;;;;;;;25.54;71.65;96122.69;7394898;19;20393;-74
2023/05/21 11:22:26;;;;;;;9.00;8.20;;;;;;;25.61;71.05;96136.78;7391971;19;20437;-74
2023/05/21 11:24:55;;;;;;;9.10;8.40;;;;;;;24.92;70.34;96127.38;7395601;19;20342;-74